createdAt,value
2023-05-14T00:00:37.180Z,0.00
2023-05-14T00:01:37.214Z,0.00
2023-05-14T00:02:37.343Z,0.00
2023-05-14T00:03:37.355Z,0.00
2023-05-14T00:04:37.290Z,0.00
2023-05-14T00:05:37.249Z,0.00
2023-05-14T00:06:37.272Z,0.00
2023-05-14T00:07:37.287Z,0.00
2023-05-14T00:08:37.313Z,0.00
2023-05-14T00:09:37.331Z,0.00
2023-05-14T00:10:37.344Z,0.00
2023-05-14T00:11:37.347Z,0.00
2023-05-14T00:12:37.353Z,0.00
2023-05-14T00:13:37.350Z,0.00
2023-05-14T00:14:37.352Z,0.00
2023-05-14T00:15:37.486Z,0.00
2023-05-14T00:16:37.635Z,0.00
2023-05-14T00:17:37.469Z,0.00
2023-05-14T00:18:37.473Z,0.00
2023-05-14T00:19:37.434Z,0.00
2023-05-14T00:20:37.460Z,0.00
2023-05-14T00:21:37.451Z,0.00
2023-05-14T00:22:37.442Z,0.00
2023-05-14T00:23:37.422Z,0.00
2023-05-14T00:24:37.454Z,0.00
2023-05-14T00:25:37.533Z,0.00
2023-05-14T00:26:37.494Z,0.00
2023-05-14T00:27:37.460Z,0.00
2023-05-14T00:28:37.482Z,0.00
2023-05-14T00:29:37.514Z,0.00
2023-05-14T00:30:37.536Z,0.00
2023-05-14T00:31:37.570Z,0.00
2023-05-14T00:32:37.557Z,0.00
2023-05-14T00:33:37.559Z,0.00
2023-05-14T00:34:37.568Z,0.00
2023-05-14T00:35:37.584Z,0.00
2023-05-14T00:36:37.621Z,0.00
2023-05-14T00:37:37.746Z,0.00
2023-05-14T00:38:37.641Z,0.00
2023-05-14T00:39:37.656Z,0.00
2023-05-14T00:40:37.674Z,0.00
2023-05-14T00:41:37.681Z,0.00
2023-05-14T00:42:37.715Z,0.00
2023-05-14T00:43:37.699Z,0.00
2023-05-14T00:44:37.703Z,0.00
2023-05-14T00:45:37.723Z,0.00
2023-05-14T00:46:37.805Z,0.00
2023-05-14T00:47:37.879Z,0.00
2023-05-14T00:48:37.750Z,0.00
2023-05-14T00:49:37.801Z,0.00
2023-05-14T00:50:37.785Z,0.00
2023-05-14T00:51:37.801Z,0.00
2023-05-14T00:52:37.809Z,0.00
2023-05-14T00:53:37.824Z,0.00
2023-05-14T00:54:37.854Z,0.00
2023-05-14T00:55:37.899Z,0.00
2023-05-14T00:56:37.925Z,0.00
2023-05-14T00:57:37.911Z,0.00
2023-05-14T00:58:37.909Z,0.00
2023-05-14T00:59:37.924Z,0.00
2023-05-14T01:00:37.995Z,0.00
2023-05-14T01:01:37.937Z,0.00
2023-05-14T01:02:38.045Z,0.00
2023-05-14T01:03:38.006Z,0.00
2023-05-14T01:04:38.012Z,0.00
2023-05-14T01:05:38.046Z,0.00
2023-05-14T01:06:37.984Z,0.00
2023-05-14T01:07:37.999Z,0.00
2023-05-14T01:08:38.021Z,0.00
2023-05-14T01:09:38.046Z,0.00
2023-05-14T01:10:38.061Z,0.00
2023-05-14T01:11:38.072Z,0.00
2023-05-14T01:12:38.061Z,0.00
2023-05-14T01:13:38.087Z,0.00
2023-05-14T01:14:38.108Z,0.00
2023-05-14T01:15:38.121Z,0.00
2023-05-14T01:16:38.138Z,0.00
2023-05-14T01:17:38.149Z,0.00
2023-05-14T01:18:38.191Z,0.00
2023-05-14T01:19:38.173Z,0.00
2023-05-14T01:20:38.180Z,0.00
2023-05-14T01:21:38.229Z,0.00
2023-05-14T01:22:38.216Z,0.00
2023-05-14T01:23:38.176Z,0.00
2023-05-14T01:24:38.181Z,0.00
2023-05-14T01:25:38.200Z,0.00
2023-05-14T01:26:38.242Z,0.00
2023-05-14T01:27:38.231Z,0.00
2023-05-14T01:28:38.241Z,0.00
2023-05-14T01:29:38.258Z,0.00
2023-05-14T01:30:38.318Z,0.00
2023-05-14T01:31:38.322Z,0.00
2023-05-14T01:32:38.344Z,0.00
2023-05-14T01:33:38.333Z,0.00
2023-05-14T01:34:38.350Z,0.00
2023-05-14T01:35:38.364Z,0.00
2023-05-14T01:36:38.380Z,0.00
2023-05-14T01:37:38.400Z,0.00
2023-05-14T01:38:38.365Z,0.00
2023-05-14T01:39:38.347Z,0.00
2023-05-14T01:40:38.375Z,0.00
2023-05-14T01:41:38.397Z,0.00
2023-05-14T01:42:38.382Z,0.00
2023-05-14T01:43:38.413Z,0.00
2023-05-14T01:44:38.440Z,0.00
2023-05-14T01:45:38.458Z,0.00
2023-05-14T01:46:38.506Z,0.00
2023-05-14T01:47:38.492Z,0.00
2023-05-14T01:48:38.475Z,0.00
2023-05-14T01:49:38.494Z,0.00
2023-05-14T01:50:38.523Z,0.00
2023-05-14T01:51:38.553Z,0.00
2023-05-14T01:52:38.572Z,0.00
2023-05-14T01:53:38.573Z,0.00
2023-05-14T01:54:38.572Z,0.00
2023-05-14T01:55:38.598Z,0.00
2023-05-14T01:56:38.671Z,0.00
2023-05-14T01:57:38.655Z,0.00
2023-05-14T01:58:38.669Z,0.00
2023-05-14T01:59:38.675Z,0.00
2023-05-14T02:00:38.695Z,0.00
2023-05-14T02:01:38.813Z,0.00
2023-05-14T02:02:38.720Z,0.00
2023-05-14T02:03:38.775Z,0.00
2023-05-14T02:04:38.757Z,0.00
2023-05-14T02:05:38.778Z,0.00
2023-05-14T02:06:39.078Z,0.00
2023-05-14T02:07:38.786Z,0.00
2023-05-14T02:08:38.799Z,0.00
2023-05-14T02:09:38.846Z,0.00
2023-05-14T02:10:38.848Z,0.00
2023-05-14T02:11:38.874Z,0.00
2023-05-14T02:12:38.903Z,0.00
2023-05-14T02:13:39.117Z,0.00
2023-05-14T02:14:38.895Z,0.00
2023-05-14T02:15:38.923Z,0.00
2023-05-14T02:16:38.934Z,0.00
2023-05-14T02:17:38.951Z,0.00
2023-05-14T02:18:39.001Z,0.00
2023-05-14T02:19:38.935Z,0.00
2023-05-14T02:20:38.894Z,0.00
2023-05-14T02:21:38.906Z,0.00
2023-05-14T02:22:38.934Z,0.00
2023-05-14T02:23:41.874Z,0.00
2023-05-14T02:24:38.968Z,0.00
2023-05-14T02:25:39.013Z,0.00
2023-05-14T02:26:39.036Z,0.00
2023-05-14T02:27:39.055Z,0.00
2023-05-14T02:28:39.057Z,0.00
2023-05-14T02:29:39.074Z,0.00
2023-05-14T02:30:39.088Z,0.00
2023-05-14T02:31:39.147Z,0.00
2023-05-14T02:32:39.184Z,0.00
2023-05-14T02:33:39.254Z,0.00
2023-05-14T02:34:39.175Z,0.00
2023-05-14T02:35:39.157Z,0.00
2023-05-14T02:36:39.196Z,0.00
2023-05-14T02:37:39.216Z,0.00
2023-05-14T02:38:39.235Z,0.00
2023-05-14T02:39:39.247Z,0.00
2023-05-14T02:40:39.251Z,0.00
2023-05-14T02:41:39.302Z,0.00
2023-05-14T02:42:39.265Z,0.00
2023-05-14T02:43:39.246Z,0.00
2023-05-14T02:44:39.272Z,0.00
2023-05-14T02:45:39.285Z,0.00
2023-05-14T02:46:39.355Z,0.00
2023-05-14T02:47:39.358Z,0.00
2023-05-14T02:48:39.332Z,0.00
2023-05-14T02:49:39.355Z,0.00
2023-05-14T02:50:39.377Z,0.00
2023-05-14T02:51:39.410Z,0.00
2023-05-14T02:52:39.425Z,0.00
2023-05-14T02:53:39.440Z,0.00
2023-05-14T02:54:39.430Z,0.00
2023-05-14T02:55:39.432Z,0.00
2023-05-14T02:56:39.447Z,0.00
2023-05-14T02:57:39.462Z,0.00
2023-05-14T02:58:39.431Z,0.00
2023-05-14T02:59:39.459Z,0.00
2023-05-14T03:00:39.538Z,0.00
2023-05-14T03:01:39.482Z,1.00
2023-05-14T03:02:39.581Z,1.00
2023-05-14T03:03:39.486Z,1.00
2023-05-14T03:04:39.496Z,1.00
2023-05-14T03:05:39.511Z,1.00
2023-05-14T03:06:39.546Z,1.00
2023-05-14T03:07:39.520Z,2.00
2023-05-14T03:08:39.572Z,1.00
2023-05-14T03:09:39.552Z,2.00
2023-05-14T03:10:39.557Z,2.00
2023-05-14T03:11:39.565Z,2.00
2023-05-14T03:12:39.540Z,3.00
2023-05-14T03:13:39.608Z,2.00
2023-05-14T03:14:39.517Z,3.00
2023-05-14T03:15:39.534Z,3.00
2023-05-14T03:16:39.569Z,3.00
2023-05-14T03:17:39.587Z,4.00
2023-05-14T03:18:39.613Z,3.00
2023-05-14T03:19:39.580Z,5.00
2023-05-14T03:20:39.586Z,4.00
2023-05-14T03:21:39.613Z,6.00
2023-05-14T03:22:39.650Z,6.00
2023-05-14T03:23:39.664Z,7.00
2023-05-14T03:24:39.685Z,7.00
2023-05-14T03:25:39.702Z,8.00
2023-05-14T03:26:39.751Z,9.00
2023-05-14T03:27:39.736Z,11.00
2023-05-14T03:28:39.754Z,11.00
2023-05-14T03:29:39.789Z,13.00
2023-05-14T03:30:39.768Z,14.00
2023-05-14T03:31:39.748Z,15.00
2023-05-14T03:32:39.783Z,17.00
2023-05-14T03:33:39.777Z,17.00
2023-05-14T03:34:39.811Z,20.00
2023-05-14T03:35:39.793Z,22.00
2023-05-14T03:36:39.810Z,24.00
2023-05-14T03:37:39.831Z,26.00
2023-05-14T03:38:39.838Z,29.00
2023-05-14T03:39:39.867Z,31.00
2023-05-14T03:40:39.871Z,34.00
2023-05-14T03:41:39.902Z,37.00
2023-05-14T03:42:39.904Z,40.00
2023-05-14T03:43:39.908Z,44.00
2023-05-14T03:44:39.932Z,47.00
2023-05-14T03:45:39.987Z,50.00
2023-05-14T03:46:39.977Z,55.00
2023-05-14T03:47:40.023Z,58.00
2023-05-14T03:48:40.029Z,62.00
2023-05-14T03:49:40.016Z,69.00
2023-05-14T03:50:40.039Z,73.00
2023-05-14T03:51:40.061Z,80.00
2023-05-14T03:52:40.070Z,87.00
2023-05-14T03:53:40.089Z,92.00
2023-05-14T03:54:40.096Z,97.00
2023-05-14T03:55:40.116Z,102.00
2023-05-14T03:56:40.123Z,107.00
2023-05-14T03:57:40.161Z,115.00
2023-05-14T03:58:40.146Z,121.00
2023-05-14T03:59:40.165Z,129.00
2023-05-14T04:00:40.173Z,136.00
2023-05-14T04:01:40.215Z,145.00
2023-05-14T04:02:40.271Z,153.00
2023-05-14T04:03:40.342Z,159.00
2023-05-14T04:04:40.229Z,163.00
2023-05-14T04:05:40.203Z,168.00
2023-05-14T04:06:40.176Z,169.00
2023-05-14T04:07:40.194Z,169.00
2023-05-14T04:08:40.205Z,174.00
2023-05-14T04:09:40.219Z,179.00
2023-05-14T04:10:40.241Z,182.00
2023-05-14T04:11:40.268Z,186.00
2023-05-14T04:12:40.277Z,194.00
2023-05-14T04:13:40.288Z,202.00
2023-05-14T04:14:40.325Z,216.00
2023-05-14T04:15:40.341Z,234.00
2023-05-14T04:16:40.463Z,239.00
2023-05-14T04:17:40.446Z,252.00
2023-05-14T04:18:40.425Z,274.00
2023-05-14T04:19:40.382Z,289.00
2023-05-14T04:20:40.396Z,296.00
2023-05-14T04:21:40.445Z,298.00
2023-05-14T04:22:40.426Z,293.00
2023-05-14T04:23:40.453Z,288.00
2023-05-14T04:24:40.460Z,292.00
2023-05-14T04:25:40.490Z,302.00
2023-05-14T04:26:40.522Z,314.00
2023-05-14T04:27:40.501Z,319.00
2023-05-14T04:28:40.527Z,329.00
2023-05-14T04:29:40.493Z,345.00
2023-05-14T04:30:40.523Z,359.00
2023-05-14T04:31:40.571Z,371.00
2023-05-14T04:32:40.557Z,379.00
2023-05-14T04:33:40.543Z,391.00
2023-05-14T04:34:40.514Z,409.00
2023-05-14T04:35:40.522Z,439.00
2023-05-14T04:36:40.563Z,474.00
2023-05-14T04:37:40.605Z,502.00
2023-05-14T04:38:40.590Z,539.00
2023-05-14T04:39:40.714Z,562.00
2023-05-14T04:40:40.614Z,594.00
2023-05-14T04:41:40.623Z,635.00
2023-05-14T04:42:40.625Z,685.00
2023-05-14T04:43:40.647Z,721.00
2023-05-14T04:44:40.668Z,745.00
2023-05-14T04:45:40.718Z,786.00
2023-05-14T04:46:40.722Z,796.00
2023-05-14T04:47:40.707Z,836.00
2023-05-14T04:48:40.702Z,877.00
2023-05-14T04:49:40.736Z,909.00
2023-05-14T04:50:40.752Z,878.00
2023-05-14T04:51:40.785Z,863.00
2023-05-14T04:52:40.775Z,916.00
2023-05-14T04:53:40.816Z,903.00
2023-05-14T04:54:40.911Z,837.00
2023-05-14T04:55:40.849Z,816.00
2023-05-14T04:56:40.862Z,804.00
2023-05-14T04:57:40.888Z,778.00
2023-05-14T04:58:40.906Z,796.00
2023-05-14T04:59:40.889Z,843.00
2023-05-14T05:00:40.902Z,898.00
2023-05-14T05:01:41.031Z,966.00
2023-05-14T05:02:40.998Z,1018.00
2023-05-14T05:03:40.981Z,1066.00
2023-05-14T05:04:40.963Z,1102.00
2023-05-14T05:05:41.005Z,1127.00
2023-05-14T05:06:40.978Z,1146.00
2023-05-14T05:07:41.000Z,1160.00
2023-05-14T05:08:41.034Z,1166.00
2023-05-14T05:09:41.004Z,1162.00
2023-05-14T05:10:41.033Z,1157.00
2023-05-14T05:11:41.064Z,1161.00
2023-05-14T05:12:41.077Z,1160.00
2023-05-14T05:13:41.101Z,1170.00
2023-05-14T05:14:41.131Z,1184.00
2023-05-14T05:15:41.154Z,1201.00
2023-05-14T05:16:41.095Z,1227.00
2023-05-14T05:17:41.152Z,1249.00
2023-05-14T05:18:41.173Z,1264.00
2023-05-14T05:19:44.015Z,1262.00
2023-05-14T05:20:41.197Z,1249.00
2023-05-14T05:21:41.264Z,1234.00
2023-05-14T05:22:41.243Z,1222.00
2023-05-14T05:23:41.264Z,1229.00
2023-05-14T05:24:41.314Z,1249.00
2023-05-14T05:25:41.296Z,1278.00
2023-05-14T05:26:41.323Z,1315.00
2023-05-14T05:27:41.333Z,1332.00
2023-05-14T05:28:41.349Z,1360.00
2023-05-14T05:29:41.408Z,1384.00
2023-05-14T05:30:41.377Z,1408.00
2023-05-14T05:31:41.435Z,1433.00
2023-05-14T05:32:41.449Z,1441.00
2023-05-14T05:33:41.419Z,1435.00
2023-05-14T05:34:41.448Z,1420.00
2023-05-14T05:35:41.466Z,1395.00
2023-05-14T05:36:41.485Z,1376.00
2023-05-14T05:37:41.526Z,1372.00
2023-05-14T05:38:41.482Z,1400.00
2023-05-14T05:39:41.517Z,1448.00
2023-05-14T05:40:41.500Z,1503.00
2023-05-14T05:41:41.529Z,1535.00
2023-05-14T05:42:41.559Z,1531.00
2023-05-14T05:43:41.527Z,1562.00
2023-05-14T05:44:41.579Z,1650.00
2023-05-14T05:45:41.625Z,1725.00
2023-05-14T05:46:41.647Z,1763.00
2023-05-14T05:47:41.860Z,1767.00
2023-05-14T05:48:41.597Z,1786.00
2023-05-14T05:49:41.629Z,1806.00
2023-05-14T05:50:41.597Z,1818.00
2023-05-14T05:51:41.621Z,1814.00
2023-05-14T05:52:41.661Z,1799.00
2023-05-14T05:53:41.679Z,1788.00
2023-05-14T05:54:41.652Z,1771.00
2023-05-14T05:55:41.665Z,1773.00
2023-05-14T05:56:41.684Z,1781.00
2023-05-14T05:57:41.701Z,1791.00
2023-05-14T05:58:41.714Z,1825.00
2023-05-14T05:59:41.756Z,1861.00
2023-05-14T06:00:41.753Z,1906.00
2023-05-14T06:01:41.794Z,1930.00
2023-05-14T06:02:41.868Z,1952.00
2023-05-14T06:03:41.785Z,1966.00
2023-05-14T06:04:41.831Z,1980.00
2023-05-14T06:05:41.989Z,1963.00
2023-05-14T06:06:41.862Z,1935.00
2023-05-14T06:07:41.882Z,1910.00
2023-05-14T06:08:41.899Z,1904.00
2023-05-14T06:09:42.006Z,1914.00
2023-05-14T06:10:41.921Z,1932.00
2023-05-14T06:11:41.926Z,1952.00
2023-05-14T06:12:41.941Z,1943.00
2023-05-14T06:13:41.948Z,1943.00
2023-05-14T06:14:41.953Z,2020.00
2023-05-14T06:15:41.976Z,2143.00
2023-05-14T06:16:42.053Z,2260.00
2023-05-14T06:17:42.019Z,2327.00
2023-05-14T06:18:42.016Z,2356.00
2023-05-14T06:19:42.022Z,2379.00
2023-05-14T06:20:41.987Z,2418.00
2023-05-14T06:21:42.028Z,2504.00
2023-05-14T06:22:42.045Z,2618.00
2023-05-14T06:23:42.092Z,2663.00
2023-05-14T06:24:42.085Z,2671.00
2023-05-14T06:25:42.092Z,2668.00
2023-05-14T06:26:42.052Z,2672.00
2023-05-14T06:27:42.081Z,2646.00
2023-05-14T06:28:42.089Z,2707.00
2023-05-14T06:29:42.114Z,2684.00
2023-05-14T06:30:42.132Z,2632.00
2023-05-14T06:31:42.179Z,2590.00
2023-05-14T06:32:42.167Z,2472.00
2023-05-14T06:33:42.178Z,2436.00
2023-05-14T06:34:42.203Z,2426.00
2023-05-14T06:35:42.185Z,2402.00
2023-05-14T06:36:42.194Z,2412.00
2023-05-14T06:37:42.199Z,2432.00
2023-05-14T06:38:42.207Z,2416.00
2023-05-14T06:39:42.221Z,2417.00
2023-05-14T06:40:42.228Z,2484.00
2023-05-14T06:41:42.258Z,2578.00
2023-05-14T06:42:42.267Z,2658.00
2023-05-14T06:43:42.297Z,2664.00
2023-05-14T06:44:42.314Z,2690.00
2023-05-14T06:45:42.330Z,2626.00
2023-05-14T06:46:42.358Z,2548.00
2023-05-14T06:47:42.394Z,2506.00
2023-05-14T06:48:42.422Z,2489.00
2023-05-14T06:49:42.450Z,2529.00
2023-05-14T06:50:42.414Z,2617.00
2023-05-14T06:51:42.426Z,2702.00
2023-05-14T06:52:42.450Z,2817.00
2023-05-14T06:53:42.465Z,2796.00
2023-05-14T06:54:42.483Z,2722.00
2023-05-14T06:55:42.484Z,2645.00
2023-05-14T06:56:42.506Z,2611.00
2023-05-14T06:57:42.533Z,2652.00
2023-05-14T06:58:42.541Z,2788.00
2023-05-14T06:59:42.569Z,2900.00
2023-05-14T07:00:42.548Z,2937.00
2023-05-14T07:01:42.603Z,2978.00
2023-05-14T07:02:42.621Z,3002.00
2023-05-14T07:03:42.611Z,2979.00
2023-05-14T07:04:42.658Z,2877.00
2023-05-14T07:05:42.695Z,2760.00
2023-05-14T07:06:42.654Z,2695.00
2023-05-14T07:07:42.684Z,2677.00
2023-05-14T07:08:42.700Z,2708.00
2023-05-14T07:09:42.724Z,2790.00
2023-05-14T07:10:42.697Z,2931.00
2023-05-14T07:11:42.718Z,3011.00
2023-05-14T07:12:42.757Z,3007.00
2023-05-14T07:13:42.819Z,2915.00
2023-05-14T07:14:42.796Z,2877.00
2023-05-14T07:15:42.783Z,2871.00
2023-05-14T07:16:42.804Z,2810.00
2023-05-14T07:17:42.772Z,2703.00
2023-05-14T07:18:42.789Z,2471.00
2023-05-14T07:19:42.779Z,2284.00
2023-05-14T07:20:42.809Z,2140.00
2023-05-14T07:21:42.831Z,1934.00
2023-05-14T07:22:42.836Z,1828.00
2023-05-14T07:23:42.850Z,1756.00
2023-05-14T07:24:42.880Z,1742.00
2023-05-14T07:25:42.903Z,1691.00
2023-05-14T07:26:42.948Z,1695.00
2023-05-14T07:27:42.963Z,1703.00
2023-05-14T07:28:43.000Z,1707.00
2023-05-14T07:29:43.030Z,1694.00
2023-05-14T07:30:42.995Z,1728.00
2023-05-14T07:31:43.123Z,1601.00
2023-05-14T07:32:43.035Z,1535.00
2023-05-14T07:33:43.020Z,1467.00
2023-05-14T07:34:43.037Z,1462.00
2023-05-14T07:35:43.064Z,1451.00
2023-05-14T07:36:43.072Z,1497.00
2023-05-14T07:37:43.086Z,1436.00
2023-05-14T07:38:43.097Z,1404.00
2023-05-14T07:39:43.145Z,1460.00
2023-05-14T07:40:43.157Z,1744.00
2023-05-14T07:41:43.184Z,2041.00
2023-05-14T07:42:43.214Z,2257.00
2023-05-14T07:43:43.239Z,2413.00
2023-05-14T07:44:43.251Z,2285.00
2023-05-14T07:45:43.279Z,2291.00
2023-05-14T07:46:43.276Z,2445.00
2023-05-14T07:47:43.455Z,2775.00
2023-05-14T07:48:43.355Z,2938.00
2023-05-14T07:49:43.310Z,2964.00
2023-05-14T07:50:43.338Z,2902.00
2023-05-14T07:51:43.353Z,2748.00
2023-05-14T07:52:43.652Z,2604.00
2023-05-14T07:53:43.399Z,2581.00
2023-05-14T07:54:43.406Z,2557.00
2023-05-14T07:55:43.422Z,2596.00
2023-05-14T07:56:43.441Z,2622.00
2023-05-14T07:57:43.484Z,2566.00
2023-05-14T07:58:43.458Z,2438.00
2023-05-14T07:59:43.488Z,2532.00
2023-05-14T08:00:43.502Z,2675.00
2023-05-14T08:01:43.582Z,2893.00
2023-05-14T08:02:43.695Z,2858.00
2023-05-14T08:03:43.650Z,2776.00
2023-05-14T08:04:43.588Z,2866.00
2023-05-14T08:05:43.625Z,2998.00
2023-05-14T08:06:43.636Z,3165.00
2023-05-14T08:07:43.664Z,3497.00
2023-05-14T08:08:43.666Z,3583.00
2023-05-14T08:09:43.689Z,3502.00
2023-05-14T08:10:43.847Z,3442.00
2023-05-14T08:11:43.730Z,3484.00
2023-05-14T08:12:43.757Z,3734.00
2023-05-14T08:13:43.762Z,3529.00
2023-05-14T08:14:43.791Z,3370.00
2023-05-14T08:15:43.806Z,3658.00
2023-05-14T08:16:43.856Z,4367.00
2023-05-14T08:17:43.883Z,5115.00
2023-05-14T08:18:43.895Z,5690.00
2023-05-14T08:19:43.886Z,5758.00
2023-05-14T08:20:43.900Z,5428.00
2023-05-14T08:21:43.896Z,4804.00
2023-05-14T08:22:43.933Z,4549.00
2023-05-14T08:23:43.934Z,4102.00
2023-05-14T08:24:43.941Z,3853.00
2023-05-14T08:25:43.967Z,3734.00
2023-05-14T08:26:43.994Z,3969.00
2023-05-14T08:27:44.005Z,4200.00
2023-05-14T08:28:43.998Z,4344.00
2023-05-14T08:29:44.013Z,4503.00
2023-05-14T08:30:44.131Z,4672.00
2023-05-14T08:31:44.176Z,4672.00
2023-05-14T08:32:44.115Z,4700.00
2023-05-14T08:33:44.095Z,4559.00
2023-05-14T08:34:44.218Z,4522.00
2023-05-14T08:35:44.080Z,4286.00
2023-05-14T08:36:44.102Z,4026.00
2023-05-14T08:37:44.132Z,3962.00
2023-05-14T08:38:44.145Z,3927.00
2023-05-14T08:39:44.129Z,4146.00
2023-05-14T08:40:44.157Z,4211.00
2023-05-14T08:41:44.163Z,4396.00
2023-05-14T08:42:44.191Z,4713.00
2023-05-14T08:43:44.215Z,4977.00
2023-05-14T08:44:44.214Z,4804.00
2023-05-14T08:45:44.228Z,5077.00
2023-05-14T08:46:44.222Z,5300.00
2023-05-14T08:47:44.300Z,5207.00
2023-05-14T08:48:44.258Z,5070.00
2023-05-14T08:49:44.250Z,5198.00
2023-05-14T08:50:44.228Z,5071.00
2023-05-14T08:51:44.235Z,4869.00
2023-05-14T08:52:44.244Z,4864.00
2023-05-14T08:53:44.277Z,4880.00
2023-05-14T08:54:44.295Z,4793.00
2023-05-14T08:55:44.318Z,4700.00
2023-05-14T08:56:44.321Z,4609.00
2023-05-14T08:57:44.353Z,4267.00
2023-05-14T08:58:44.396Z,4071.00
2023-05-14T08:59:44.383Z,4022.00
2023-05-14T09:00:44.395Z,4078.00
2023-05-14T09:01:44.476Z,3992.00
2023-05-14T09:02:44.594Z,3711.00
2023-05-14T09:03:44.523Z,3263.00
2023-05-14T09:04:44.469Z,2977.00
2023-05-14T09:05:44.519Z,2865.00
2023-05-14T09:06:44.528Z,2811.00
2023-05-14T09:07:44.557Z,2704.00
2023-05-14T09:08:44.587Z,2718.00
2023-05-14T09:09:44.564Z,2901.00
2023-05-14T09:10:44.602Z,3093.00
2023-05-14T09:11:44.608Z,3420.00
2023-05-14T09:12:44.648Z,3682.00
2023-05-14T09:13:44.673Z,3877.00
2023-05-14T09:14:44.685Z,4189.00
2023-05-14T09:15:44.712Z,4591.00
2023-05-14T09:16:44.841Z,4985.00
2023-05-14T09:17:44.857Z,5156.00
2023-05-14T09:18:44.903Z,5284.00
2023-05-14T09:19:44.810Z,5653.00
2023-05-14T09:20:44.817Z,5977.00
2023-05-14T09:21:44.848Z,6208.00
2023-05-14T09:22:44.867Z,6424.00
2023-05-14T09:23:44.871Z,6579.00
2023-05-14T09:24:44.885Z,6628.00
2023-05-14T09:25:44.903Z,6573.00
2023-05-14T09:26:44.945Z,6375.00
2023-05-14T09:27:44.900Z,6338.00
2023-05-14T09:28:45.180Z,6373.00
2023-05-14T09:29:44.943Z,6460.00
2023-05-14T09:30:44.915Z,6436.00
2023-05-14T09:31:44.954Z,6147.00
2023-05-14T09:32:44.949Z,5847.00
2023-05-14T09:33:44.958Z,5838.00
2023-05-14T09:34:45.018Z,5497.00
2023-05-14T09:35:44.987Z,5331.00
2023-05-14T09:36:44.995Z,5381.00
2023-05-14T09:37:45.036Z,5482.00
2023-05-14T09:38:45.009Z,5374.00
2023-05-14T09:39:45.025Z,5202.00
2023-05-14T09:40:45.044Z,5089.00
2023-05-14T09:41:45.066Z,4977.00
2023-05-14T09:42:45.102Z,4929.00
2023-05-14T09:43:45.125Z,4759.00
2023-05-14T09:44:45.145Z,4794.00
2023-05-14T09:45:45.153Z,4645.00
2023-05-14T09:46:45.193Z,4850.00
2023-05-14T09:47:45.634Z,4966.00
2023-05-14T09:48:45.316Z,4967.00
2023-05-14T09:49:45.225Z,5090.00
2023-05-14T09:50:45.230Z,5225.00
2023-05-14T09:51:45.269Z,5268.00
2023-05-14T09:52:45.262Z,5198.00
2023-05-14T09:53:45.334Z,4800.00
2023-05-14T09:54:45.299Z,4415.00
2023-05-14T09:55:45.305Z,4304.00
2023-05-14T09:56:45.341Z,4348.00
2023-05-14T09:57:45.312Z,4285.00
2023-05-14T09:58:45.338Z,4246.00
2023-05-14T09:59:45.315Z,4294.00
2023-05-14T10:00:45.564Z,4204.00
2023-05-14T10:01:45.425Z,3891.00
2023-05-14T10:02:45.412Z,3531.00
2023-05-14T10:03:45.438Z,3209.00
2023-05-14T10:04:45.550Z,3110.00
2023-05-14T10:05:45.419Z,3065.00
2023-05-14T10:06:45.442Z,3045.00
2023-05-14T10:07:45.458Z,3225.00
2023-05-14T10:08:45.488Z,3421.00
2023-05-14T10:09:45.535Z,3536.00
2023-05-14T10:10:45.506Z,3640.00
2023-05-14T10:11:45.485Z,3745.00
2023-05-14T10:12:45.519Z,3863.00
2023-05-14T10:13:45.524Z,4075.00
2023-05-14T10:14:45.531Z,4324.00
2023-05-14T10:15:45.578Z,4569.00
2023-05-14T10:16:45.598Z,4681.00
2023-05-14T10:17:45.602Z,4728.00
2023-05-14T10:18:45.603Z,4922.00
2023-05-14T10:19:45.576Z,5177.00
2023-05-14T10:20:45.603Z,5399.00
2023-05-14T10:21:45.573Z,5565.00
2023-05-14T10:22:45.593Z,5707.00
2023-05-14T10:23:45.605Z,5770.00
2023-05-14T10:24:45.645Z,5759.00
2023-05-14T10:25:45.701Z,5756.00
2023-05-14T10:26:45.661Z,5856.00
2023-05-14T10:27:45.681Z,6024.00
2023-05-14T10:28:45.705Z,6219.00
2023-05-14T10:29:45.689Z,6476.00
2023-05-14T10:30:45.794Z,6790.00
2023-05-14T10:31:45.775Z,7095.00
2023-05-14T10:32:45.725Z,7336.00
2023-05-14T10:33:45.726Z,7369.00
2023-05-14T10:34:45.742Z,7224.00
2023-05-14T10:35:45.814Z,7061.00
2023-05-14T10:36:45.783Z,6992.00
2023-05-14T10:37:45.811Z,7101.00
2023-05-14T10:38:45.822Z,7204.00
2023-05-14T10:39:45.855Z,7240.00
2023-05-14T10:40:45.877Z,7142.00
2023-05-14T10:41:45.923Z,7104.00
2023-05-14T10:42:45.892Z,6997.00
2023-05-14T10:43:45.930Z,6718.00
2023-05-14T10:44:45.937Z,6297.00
2023-05-14T10:45:45.968Z,6084.00
2023-05-14T10:46:45.977Z,6074.00
2023-05-14T10:47:46.212Z,6130.00
2023-05-14T10:48:45.954Z,6133.00
2023-05-14T10:49:45.986Z,6039.00
2023-05-14T10:50:46.046Z,5974.00
2023-05-14T10:51:46.097Z,5883.00
2023-05-14T10:52:46.037Z,5700.00
2023-05-14T10:53:46.013Z,5341.00
2023-05-14T10:54:46.027Z,4835.00
2023-05-14T10:55:46.046Z,4536.00
2023-05-14T10:56:46.056Z,4445.00
2023-05-14T10:57:46.152Z,4442.00
2023-05-14T10:58:46.077Z,4609.00
2023-05-14T10:59:46.112Z,4912.00
2023-05-14T11:00:46.123Z,5341.00
2023-05-14T11:01:46.177Z,5796.00
2023-05-14T11:02:46.177Z,6212.00
2023-05-14T11:03:46.363Z,6570.00
2023-05-14T11:04:46.188Z,6902.00
2023-05-14T11:05:46.193Z,7052.00
2023-05-14T11:06:46.203Z,7136.00
2023-05-14T11:07:46.225Z,7382.00
2023-05-14T11:08:46.282Z,7671.00
2023-05-14T11:09:46.237Z,7957.00
2023-05-14T11:10:46.326Z,8180.00
2023-05-14T11:11:46.248Z,8376.00
2023-05-14T11:12:46.285Z,8507.00
2023-05-14T11:13:46.299Z,8507.00
2023-05-14T11:14:46.268Z,8248.00
2023-05-14T11:15:46.296Z,615.00
2023-05-14T11:16:46.370Z,604.00
2023-05-14T11:17:46.384Z,609.00
2023-05-14T11:18:46.401Z,625.00
2023-05-14T11:19:46.345Z,646.00
2023-05-14T11:20:46.348Z,651.00
2023-05-14T11:21:46.431Z,661.00
2023-05-14T11:22:46.398Z,678.00
2023-05-14T11:23:46.412Z,682.00
2023-05-14T11:24:46.440Z,684.00
2023-05-14T11:25:46.470Z,678.00
2023-05-14T11:26:46.475Z,672.00
2023-05-14T11:27:46.502Z,659.00
2023-05-14T11:28:46.520Z,653.00
2023-05-14T11:29:46.540Z,643.00
2023-05-14T11:30:46.529Z,612.00
2023-05-14T11:31:46.543Z,602.00
2023-05-14T11:32:46.584Z,600.00
2023-05-14T11:33:46.540Z,627.00
2023-05-14T11:34:46.560Z,602.00
2023-05-14T11:35:46.591Z,627.00
2023-05-14T11:36:46.598Z,629.00
2023-05-14T11:37:46.651Z,625.00
2023-05-14T11:38:46.629Z,629.00
2023-05-14T11:39:46.661Z,631.00
2023-05-14T11:40:46.688Z,621.00
2023-05-14T11:41:46.707Z,618.00
2023-05-14T11:42:46.773Z,623.00
2023-05-14T11:43:46.738Z,632.00
2023-05-14T11:44:46.765Z,654.00
2023-05-14T11:45:46.820Z,658.00
2023-05-14T11:46:46.786Z,695.00
2023-05-14T11:47:46.915Z,667.00
2023-05-14T11:48:46.811Z,640.00
2023-05-14T11:49:46.827Z,613.00
2023-05-14T11:50:46.840Z,613.00
2023-05-14T11:51:46.845Z,613.00
2023-05-14T11:52:46.894Z,625.00
2023-05-14T11:53:46.878Z,617.00
2023-05-14T11:54:46.897Z,616.00
2023-05-14T11:55:46.907Z,673.00
2023-05-14T11:56:46.915Z,655.00
2023-05-14T11:57:46.959Z,685.00
2023-05-14T11:58:46.937Z,693.00
2023-05-14T11:59:46.946Z,667.00
2023-05-14T12:00:46.939Z,689.00
2023-05-14T12:01:48.065Z,671.00
2023-05-14T12:02:47.059Z,615.00
2023-05-14T12:03:47.022Z,592.00
2023-05-14T12:04:47.070Z,559.00
2023-05-14T12:05:46.977Z,531.00
2023-05-14T12:06:46.985Z,537.00
2023-05-14T12:07:47.037Z,456.00
2023-05-14T12:08:47.027Z,454.00
2023-05-14T12:09:47.047Z,485.00
2023-05-14T12:10:47.051Z,477.00
2023-05-14T12:11:47.060Z,521.00
2023-05-14T12:12:47.087Z,535.00
2023-05-14T12:13:47.076Z,535.00
2023-05-14T12:14:47.109Z,556.00
2023-05-14T12:15:47.175Z,639.00
2023-05-14T12:16:47.257Z,641.00
2023-05-14T12:17:47.194Z,683.00
2023-05-14T12:18:47.159Z,701.00
2023-05-14T12:19:47.134Z,695.00
2023-05-14T12:20:47.153Z,617.00
2023-05-14T12:21:47.178Z,594.00
2023-05-14T12:22:47.183Z,571.00
2023-05-14T12:23:47.205Z,547.00
2023-05-14T12:24:47.218Z,520.00
2023-05-14T12:25:47.252Z,496.00
2023-05-14T12:26:47.266Z,493.00
2023-05-14T12:27:47.280Z,493.00
2023-05-14T12:28:47.307Z,469.00
2023-05-14T12:29:47.313Z,439.00
2023-05-14T12:30:47.350Z,414.00